Weather at Charleroi airport - EBCI


metar: EBCI 232250Z 14001KT CAVOK 12/08 Q1019 NOSIG

23 minuten geleden, om 22:50 UTC, de wind blies met windsnelheden van 0.5 meter per seconde(1.2 mijl per uur) vanuit Zuidoost nabij Charleroi airport. De temperatuur was 12 °C (54 °F), en de barometerdruk was 1,019 hPa (30.09 inHg). De relatieve vochtigheid was 76.5%. Er is geen bewolking beneden 1,524 meter (5,000 voet). De zichtbaarheid was >10 kilometer (>6.2 mijl).

temperature image   windir image sky image 

Last 24 hour graph Charleroi Airport - EBCI